createdAt,value
2023-01-06T00:02:19.835Z,0.45
2023-01-06T00:04:47.916Z,1.10
2023-01-06T00:07:15.957Z,0.60
2023-01-06T00:09:43.897Z,1.25
2023-01-06T00:12:11.828Z,0.80
2023-01-06T00:14:42.978Z,0.65
2023-01-06T00:17:11.436Z,0.60
2023-01-06T00:19:39.360Z,1.50
2023-01-06T00:22:07.364Z,1.20
2023-01-06T00:24:35.425Z,1.00
2023-01-06T00:27:03.352Z,1.13
2023-01-06T00:29:32.504Z,0.65
2023-01-06T00:32:02.699Z,0.80
2023-01-06T00:34:30.670Z,1.02
2023-01-06T00:36:58.582Z,0.80
2023-01-06T00:39:26.505Z,0.70
2023-01-06T00:42:06.784Z,1.20
2023-01-06T00:44:36.133Z,0.85
2023-01-06T00:47:07.679Z,0.57
2023-01-06T00:49:35.948Z,0.60
2023-01-06T00:52:04.009Z,0.90
2023-01-06T00:54:33.056Z,0.80
2023-01-06T00:57:00.990Z,0.90
2023-01-06T00:59:28.937Z,0.60
2023-01-06T01:01:58.512Z,0.60
2023-01-06T01:04:28.212Z,0.43
2023-01-06T01:06:56.380Z,0.80
2023-01-06T01:09:26.625Z,0.75
2023-01-06T01:12:11.808Z,0.77
2023-01-06T01:14:43.590Z,1.10
2023-01-06T01:17:13.008Z,0.60
2023-01-06T01:19:42.634Z,0.73
2023-01-06T01:22:11.096Z,1.10
2023-01-06T01:24:39.133Z,0.55
2023-01-06T01:27:07.490Z,1.50
2023-01-06T01:29:35.643Z,0.50
2023-01-06T01:32:03.907Z,0.75
2023-01-06T01:34:31.830Z,0.60
2023-01-06T01:37:01.209Z,0.60
2023-01-06T01:39:31.307Z,0.95
2023-01-06T01:42:00.050Z,0.45
2023-01-06T01:44:57.618Z,0.90
2023-01-06T01:47:31.484Z,0.80
2023-01-06T01:50:05.448Z,1.00
2023-01-06T01:52:35.584Z,0.60
2023-01-06T01:55:04.903Z,0.82
2023-01-06T01:57:38.182Z,0.80
2023-01-06T02:00:08.904Z,0.93
2023-01-06T02:02:43.898Z,1.20
2023-01-06T02:05:16.866Z,1.38
2023-01-06T02:07:46.949Z,1.10
2023-01-06T02:10:17.752Z,0.82
2023-01-06T02:12:49.116Z,0.90
2023-01-06T02:15:19.354Z,0.90
2023-01-06T02:18:06.527Z,0.75
2023-01-06T02:20:47.241Z,0.85
2023-01-06T02:23:43.189Z,1.40
2023-01-06T02:26:38.645Z,1.70
2023-01-06T02:29:34.961Z,2.25
2023-01-06T02:32:15.501Z,1.15
2023-01-06T02:34:50.631Z,1.02
2023-01-06T02:37:34.044Z,1.67
2023-01-06T02:40:16.698Z,1.08
2023-01-06T02:42:51.992Z,1.20
2023-01-06T02:45:24.243Z,1.23
2023-01-06T02:48:01.487Z,1.52
2023-01-06T02:50:41.121Z,1.77
2023-01-06T02:53:14.557Z,1.27
2023-01-06T02:55:47.894Z,1.25
2023-01-06T02:58:23.419Z,1.42
2023-01-06T03:00:57.438Z,0.85
2023-01-06T03:03:37.408Z,1.40
2023-01-06T03:06:10.041Z,1.05
2023-01-06T03:08:39.592Z,1.45
2023-01-06T03:11:07.636Z,1.10
2023-01-06T03:13:40.959Z,0.98
2023-01-06T03:16:09.604Z,1.20
2023-01-06T03:18:40.506Z,1.70
2023-01-06T03:21:12.640Z,1.23
2023-01-06T03:23:42.890Z,1.50
2023-01-06T03:26:11.224Z,1.58
2023-01-06T03:28:39.485Z,1.45
2023-01-06T03:31:16.289Z,1.60
2023-01-06T03:33:56.798Z,1.50
2023-01-06T03:36:31.242Z,2.03
2023-01-06T03:39:07.825Z,1.40
2023-01-06T03:41:59.600Z,1.42
2023-01-06T03:44:36.455Z,1.63
2023-01-06T03:47:14.352Z,1.80
2023-01-06T03:49:53.022Z,1.10
2023-01-06T03:52:26.942Z,1.10
2023-01-06T03:55:00.541Z,1.50
2023-01-06T03:57:33.776Z,1.50
2023-01-06T04:00:06.992Z,1.40
2023-01-06T04:02:42.509Z,1.80
2023-01-06T04:05:20.212Z,1.65
2023-01-06T04:07:50.001Z,1.30
2023-01-06T04:10:20.793Z,0.88
2023-01-06T04:12:50.941Z,1.85
2023-01-06T04:15:24.781Z,1.95
2023-01-06T04:17:54.932Z,1.90
2023-01-06T04:20:28.254Z,1.88
2023-01-06T04:23:09.678Z,1.63
2023-01-06T04:25:40.524Z,1.52
2023-01-06T04:28:15.442Z,1.60
2023-01-06T04:30:44.611Z,1.65
2023-01-06T04:33:12.958Z,1.63
2023-01-06T04:35:45.863Z,1.33
2023-01-06T04:38:17.666Z,2.43
2023-01-06T04:40:45.631Z,1.85
2023-01-06T04:43:16.130Z,2.22
2023-01-06T04:45:44.946Z,1.58
2023-01-06T04:48:13.356Z,1.42
2023-01-06T04:50:41.788Z,1.50
2023-01-06T04:53:12.897Z,1.95
2023-01-06T04:55:41.548Z,6.57
2023-01-06T04:58:09.920Z,9.90
2023-01-06T05:00:37.813Z,5.07
2023-01-06T05:03:05.754Z,3.65
2023-01-06T05:05:33.661Z,2.13
2023-01-06T05:08:01.577Z,1.45
2023-01-06T05:10:30.832Z,1.73
2023-01-06T05:12:58.901Z,1.60
2023-01-06T05:15:26.825Z,1.50
2023-01-06T05:17:54.716Z,1.70
2023-01-06T05:20:22.631Z,1.50
2023-01-06T05:22:50.550Z,2.10
2023-01-06T05:25:18.448Z,2.10
2023-01-06T05:27:47.701Z,1.73
2023-01-06T05:30:15.701Z,4.50
2023-01-06T05:32:43.602Z,9.70
2023-01-06T05:35:11.528Z,5.93
2023-01-06T05:37:39.445Z,10.07
2023-01-06T05:40:08.616Z,7.03
2023-01-06T05:42:36.523Z,5.05
2023-01-06T05:45:06.526Z,4.05
2023-01-06T05:47:34.429Z,2.60
2023-01-06T05:50:02.315Z,1.85
2023-01-06T05:52:30.253Z,2.35
2023-01-06T05:54:58.204Z,1.80
2023-01-06T05:57:26.130Z,1.98
2023-01-06T05:59:54.044Z,1.90
2023-01-06T06:02:23.382Z,2.13
2023-01-06T06:04:51.304Z,2.42
2023-01-06T06:07:19.240Z,2.90
2023-01-06T06:09:47.163Z,2.88
2023-01-06T06:12:15.110Z,2.47
2023-01-06T06:14:43.245Z,2.53
2023-01-06T06:17:11.165Z,2.60
2023-01-06T06:19:40.420Z,2.55
2023-01-06T06:22:10.565Z,2.72
2023-01-06T06:24:38.718Z,1.60
2023-01-06T06:27:06.687Z,2.40
2023-01-06T06:29:35.554Z,1.70
2023-01-06T06:32:03.495Z,2.65
2023-01-06T06:34:31.403Z,2.75
2023-01-06T06:37:00.665Z,1.83
2023-01-06T06:39:28.636Z,1.73
2023-01-06T06:41:56.557Z,2.13
2023-01-06T06:44:24.493Z,1.88
2023-01-06T06:46:52.419Z,2.35
2023-01-06T06:49:20.322Z,2.38
2023-01-06T06:51:48.535Z,2.58
2023-01-06T06:54:17.784Z,2.97
2023-01-06T06:56:45.909Z,2.30
2023-01-06T06:59:13.871Z,3.03
2023-01-06T07:01:41.982Z,3.17
2023-01-06T07:04:10.160Z,4.07
2023-01-06T07:06:38.246Z,2.92
2023-01-06T07:09:06.827Z,2.90
2023-01-06T07:11:36.085Z,4.43
2023-01-06T07:14:04.067Z,5.03
2023-01-06T07:16:31.974Z,3.95
2023-01-06T07:18:59.899Z,3.85
2023-01-06T07:21:27.867Z,3.22
2023-01-06T07:23:55.902Z,2.72
2023-01-06T07:26:23.851Z,2.60
2023-01-06T07:28:53.107Z,2.20
2023-01-06T07:31:21.060Z,3.78
2023-01-06T07:33:49.009Z,3.25
2023-01-06T07:36:16.947Z,2.78
2023-01-06T07:38:44.871Z,2.85
2023-01-06T07:41:12.783Z,3.38
2023-01-06T07:43:40.831Z,3.53
2023-01-06T07:46:10.282Z,3.33
2023-01-06T07:48:38.347Z,4.50
2023-01-06T07:51:07.013Z,3.38
2023-01-06T07:53:37.319Z,3.47
2023-01-06T07:56:05.552Z,3.95
2023-01-06T07:58:33.616Z,3.20
2023-01-06T08:01:06.922Z,3.80
2023-01-06T08:03:36.457Z,2.55
2023-01-06T08:06:08.328Z,2.97
2023-01-06T08:08:38.200Z,4.28
2023-01-06T08:11:08.380Z,4.82
2023-01-06T08:13:37.221Z,4.13
2023-01-06T08:16:06.257Z,3.15
2023-01-06T08:18:35.996Z,3.05
2023-01-06T08:21:04.918Z,2.40
2023-01-06T08:23:33.063Z,2.75
2023-01-06T08:26:04.433Z,2.80
2023-01-06T08:28:32.991Z,2.63
2023-01-06T08:31:01.163Z,3.17
2023-01-06T08:33:29.849Z,3.00
2023-01-06T08:36:01.211Z,3.00
2023-01-06T08:38:30.435Z,2.40
2023-01-06T08:41:00.602Z,2.00
2023-01-06T08:43:29.901Z,2.72
2023-01-06T08:46:00.811Z,2.50
2023-01-06T08:48:28.999Z,2.67
2023-01-06T08:50:58.084Z,2.65
2023-01-06T08:53:27.353Z,3.53
2023-01-06T08:55:55.275Z,3.85
2023-01-06T08:58:23.191Z,2.70
2023-01-06T09:00:51.436Z,3.08
2023-01-06T09:03:21.504Z,4.25
2023-01-06T09:05:54.297Z,3.00
2023-01-06T09:08:22.281Z,2.33
2023-01-06T09:10:51.928Z,2.72
2023-01-06T09:13:19.882Z,2.17
2023-01-06T09:15:49.019Z,3.08
2023-01-06T09:18:17.097Z,2.63
2023-01-06T09:20:45.032Z,2.33
2023-01-06T09:23:12.961Z,3.58
2023-01-06T09:25:41.890Z,2.55
2023-01-06T09:28:12.263Z,2.17
2023-01-06T09:30:41.615Z,2.42
2023-01-06T09:33:09.819Z,2.10
2023-01-06T09:35:37.746Z,3.58
2023-01-06T09:38:05.679Z,2.92
2023-01-06T09:40:57.653Z,2.63
2023-01-06T09:43:38.542Z,2.80
2023-01-06T09:46:09.605Z,3.00
2023-01-06T09:48:40.917Z,2.53
2023-01-06T09:51:18.044Z,2.63
2023-01-06T09:53:52.180Z,3.58
2023-01-06T09:56:23.408Z,2.08
2023-01-06T09:58:58.083Z,1.83
2023-01-06T10:01:31.614Z,2.08
2023-01-06T10:04:00.446Z,1.90
2023-01-06T10:06:34.293Z,2.50
2023-01-06T10:09:17.160Z,2.50
2023-01-06T10:11:58.413Z,1.95
2023-01-06T10:14:38.622Z,1.98
2023-01-06T10:17:26.042Z,1.60
2023-01-06T10:20:07.759Z,2.00
2023-01-06T10:22:46.370Z,1.85
2023-01-06T10:25:20.725Z,1.50
2023-01-06T10:27:52.172Z,1.42
2023-01-06T10:30:30.424Z,1.10
2023-01-06T10:33:02.500Z,0.60
2023-01-06T10:35:31.028Z,0.93
2023-01-06T10:38:00.932Z,0.93
2023-01-06T10:40:32.173Z,1.10
2023-01-06T10:43:03.623Z,1.17
2023-01-06T10:45:37.870Z,1.70
2023-01-06T10:48:08.579Z,1.30
2023-01-06T10:50:36.655Z,1.13
2023-01-06T10:53:05.450Z,0.90
2023-01-06T10:55:39.163Z,1.40
2023-01-06T10:58:25.256Z,1.27
2023-01-06T11:01:00.080Z,0.85
2023-01-06T11:03:33.754Z,0.80
2023-01-06T11:06:18.142Z,1.13
2023-01-06T11:08:46.201Z,1.10
2023-01-06T11:11:27.862Z,0.90
2023-01-06T11:13:58.731Z,1.10
2023-01-06T11:16:30.631Z,1.33
2023-01-06T11:19:01.264Z,1.38
2023-01-06T11:21:39.855Z,1.30
2023-01-06T11:24:18.702Z,1.67
2023-01-06T11:26:51.213Z,0.90
2023-01-06T11:29:24.582Z,1.25
2023-01-06T11:31:54.211Z,2.78
2023-01-06T11:34:24.695Z,1.92
2023-01-06T11:36:53.482Z,1.50
2023-01-06T11:39:27.797Z,1.90
2023-01-06T11:41:57.600Z,1.42
2023-01-06T11:44:32.388Z,1.73
2023-01-06T11:47:06.330Z,2.28
2023-01-06T11:49:38.084Z,1.85
2023-01-06T11:52:09.146Z,2.25
2023-01-06T11:54:39.340Z,1.73
2023-01-06T11:57:24.248Z,2.53
2023-01-06T12:00:20.285Z,1.98
2023-01-06T12:02:53.954Z,2.53
2023-01-06T12:05:31.186Z,2.03
2023-01-06T12:07:59.545Z,3.15
2023-01-06T12:10:33.674Z,2.30
2023-01-06T12:13:01.674Z,2.92
2023-01-06T12:15:32.459Z,2.20
2023-01-06T12:18:05.586Z,1.83
2023-01-06T12:20:36.162Z,2.45
2023-01-06T12:23:08.863Z,1.83
2023-01-06T12:25:41.697Z,2.15
2023-01-06T12:28:17.862Z,1.88
2023-01-06T12:30:54.176Z,1.88
2023-01-06T12:33:28.731Z,2.13
2023-01-06T12:36:01.591Z,2.03
2023-01-06T12:38:42.060Z,2.28
2023-01-06T12:41:15.507Z,1.60
2023-01-06T12:43:53.948Z,1.35
2023-01-06T12:46:28.512Z,2.03
2023-01-06T12:49:04.245Z,2.22
2023-01-06T12:51:39.196Z,2.10
2023-01-06T12:54:13.951Z,1.67
2023-01-06T12:56:58.479Z,2.00
2023-01-06T12:59:34.411Z,2.25
2023-01-06T13:02:17.375Z,2.15
2023-01-06T13:05:03.579Z,2.05
2023-01-06T13:07:45.553Z,1.80
2023-01-06T13:10:25.424Z,2.10
2023-01-06T13:13:26.845Z,2.08
2023-01-06T13:15:58.033Z,1.77
2023-01-06T13:18:31.508Z,2.30
2023-01-06T13:21:06.478Z,2.47
2023-01-06T13:23:46.705Z,1.85
2023-01-06T13:26:56.364Z,2.38
2023-01-06T13:29:35.194Z,2.70
2023-01-06T13:32:21.421Z,2.28
2023-01-06T13:35:19.084Z,2.70
2023-01-06T13:38:03.618Z,3.38
2023-01-06T13:40:37.041Z,2.60
2023-01-06T13:43:07.871Z,3.00
2023-01-06T13:45:39.495Z,2.95
2023-01-06T13:48:09.699Z,1.98
2023-01-06T13:50:38.556Z,1.95
2023-01-06T13:53:11.890Z,1.83
2023-01-06T13:55:40.460Z,1.60
2023-01-06T13:58:37.367Z,1.80
2023-01-06T14:01:09.991Z,2.28
2023-01-06T14:03:39.148Z,1.95
2023-01-06T14:06:34.409Z,1.60
2023-01-06T14:09:03.804Z,1.60
2023-01-06T14:11:34.588Z,1.52
2023-01-06T14:14:04.643Z,1.75
2023-01-06T14:16:43.501Z,1.63
2023-01-06T14:19:17.466Z,1.60
2023-01-06T14:21:48.212Z,2.03
2023-01-06T14:24:23.733Z,3.17
2023-01-06T14:26:55.677Z,3.28
2023-01-06T14:29:46.501Z,2.65
2023-01-06T14:32:50.177Z,1.95
2023-01-06T14:35:22.278Z,2.65
2023-01-06T14:37:54.234Z,2.42
2023-01-06T14:40:26.527Z,2.38
2023-01-06T14:42:56.167Z,2.55
2023-01-06T14:45:27.305Z,3.13
2023-01-06T14:48:03.084Z,3.22
2023-01-06T14:50:46.187Z,3.70
2023-01-06T14:53:24.025Z,5.45
2023-01-06T14:55:53.989Z,5.47
2023-01-06T14:58:33.073Z,7.07
2023-01-06T15:01:03.031Z,6.72
2023-01-06T15:03:32.614Z,5.53
2023-01-06T15:06:18.384Z,5.55
2023-01-06T15:08:49.171Z,5.85
2023-01-06T15:11:25.582Z,4.25
2023-01-06T15:13:53.524Z,5.00
2023-01-06T15:16:32.319Z,4.90
2023-01-06T15:19:01.771Z,4.95
2023-01-06T15:21:30.179Z,4.07
2023-01-06T15:23:58.350Z,7.38
2023-01-06T15:26:29.815Z,4.28
2023-01-06T15:29:01.715Z,6.43
2023-01-06T15:31:35.483Z,6.85
2023-01-06T15:34:07.380Z,7.97
2023-01-06T15:36:36.361Z,5.47
2023-01-06T15:39:07.602Z,5.53
2023-01-06T15:41:38.691Z,4.30
2023-01-06T15:44:23.985Z,5.30
2023-01-06T15:46:54.738Z,9.00
2023-01-06T15:49:27.225Z,9.40
2023-01-06T15:51:58.623Z,10.02
2023-01-06T15:54:29.293Z,11.52
2023-01-06T15:57:11.508Z,12.25
2023-01-06T15:59:43.813Z,13.23
2023-01-06T16:02:19.200Z,19.20
2023-01-06T16:04:51.332Z,15.93
2023-01-06T16:07:34.997Z,18.30
2023-01-06T16:10:03.254Z,15.18
2023-01-06T16:12:32.627Z,16.67
2023-01-06T16:15:36.069Z,13.60
2023-01-06T16:18:04.002Z,12.48
2023-01-06T16:20:36.529Z,10.68
2023-01-06T16:23:05.031Z,13.02
2023-01-06T16:25:35.139Z,11.25
2023-01-06T16:28:05.976Z,9.40
2023-01-06T16:30:36.295Z,8.85
2023-01-06T16:33:05.353Z,8.50
2023-01-06T16:35:35.224Z,9.38
2023-01-06T16:38:03.477Z,9.65
2023-01-06T16:40:32.656Z,9.23
2023-01-06T16:43:01.830Z,8.75
2023-01-06T16:45:36.038Z,11.35
2023-01-06T16:48:03.978Z,8.57
2023-01-06T16:50:39.201Z,9.60
2023-01-06T16:53:14.857Z,7.35
2023-01-06T16:55:43.575Z,7.43
2023-01-06T16:58:17.265Z,7.18
2023-01-06T17:00:51.565Z,6.80
2023-01-06T17:03:21.368Z,8.77
2023-01-06T17:05:49.542Z,8.77
2023-01-06T17:08:28.605Z,8.76
2023-01-06T17:10:57.158Z,7.40
2023-01-06T17:13:38.888Z,8.07
2023-01-06T17:16:16.407Z,8.57
2023-01-06T17:19:16.484Z,5.97
2023-01-06T17:21:44.398Z,4.68
2023-01-06T17:24:15.705Z,5.07
2023-01-06T17:26:50.204Z,8.02
2023-01-06T17:29:23.309Z,4.22
2023-01-06T17:31:55.822Z,3.85
2023-01-06T17:34:25.917Z,4.30
2023-01-06T17:36:56.659Z,3.58
2023-01-06T17:39:26.884Z,3.95
2023-01-06T17:42:02.396Z,3.88
2023-01-06T17:44:36.589Z,4.28
2023-01-06T17:47:13.191Z,5.82
2023-01-06T17:49:42.374Z,3.72
2023-01-06T17:52:22.438Z,4.72
2023-01-06T17:55:13.376Z,4.68
2023-01-06T17:57:44.569Z,4.53
2023-01-06T18:00:21.232Z,4.30
2023-01-06T18:02:55.901Z,4.43
2023-01-06T18:06:01.561Z,4.15
2023-01-06T18:08:32.738Z,9.73
2023-01-06T18:11:27.002Z,9.23
2023-01-06T18:13:55.528Z,9.07
2023-01-06T18:16:32.050Z,9.05
2023-01-06T18:19:15.175Z,7.47
2023-01-06T18:21:45.802Z,5.82
2023-01-06T18:24:18.455Z,4.05
2023-01-06T18:26:51.587Z,6.80
2023-01-06T18:29:23.390Z,7.20
2023-01-06T18:31:53.096Z,6.72
2023-01-06T18:34:42.091Z,7.63
2023-01-06T18:37:10.051Z,6.38
2023-01-06T18:39:41.453Z,5.68
2023-01-06T18:42:22.882Z,5.32
2023-01-06T18:44:52.880Z,5.65
2023-01-06T18:47:23.681Z,6.68
2023-01-06T18:49:58.760Z,12.10
2023-01-06T18:52:37.736Z,9.40
2023-01-06T18:55:21.579Z,12.18
2023-01-06T18:57:56.932Z,11.45
2023-01-06T19:00:40.859Z,13.07
2023-01-06T19:03:32.113Z,13.40
2023-01-06T19:06:22.238Z,13.48
2023-01-06T19:08:51.618Z,14.65
2023-01-06T19:11:22.450Z,17.38
2023-01-06T19:13:54.047Z,14.65
2023-01-06T19:16:29.269Z,14.40
2023-01-06T19:19:13.638Z,15.38
2023-01-06T19:21:43.694Z,15.13
2023-01-06T19:24:38.491Z,15.18
2023-01-06T19:27:18.302Z,14.82
2023-01-06T19:29:46.517Z,15.77
2023-01-06T19:32:16.491Z,16.83
2023-01-06T19:34:45.988Z,18.48
2023-01-06T19:37:20.308Z,16.85
2023-01-06T19:39:50.894Z,18.52
2023-01-06T19:42:24.479Z,17.17
2023-01-06T19:44:55.469Z,15.65
2023-01-06T19:47:25.947Z,11.75
2023-01-06T19:50:02.057Z,10.50
2023-01-06T19:52:37.851Z,7.70
2023-01-06T19:55:30.143Z,9.70
2023-01-06T19:58:01.657Z,8.65
2023-01-06T20:00:41.346Z,7.15
2023-01-06T20:03:26.092Z,8.25
2023-01-06T20:05:55.284Z,7.93
2023-01-06T20:08:24.570Z,10.00
2023-01-06T20:10:52.597Z,7.95
2023-01-06T20:13:20.538Z,8.25
2023-01-06T20:15:53.013Z,9.07
2023-01-06T20:18:23.061Z,9.38
2023-01-06T20:20:52.476Z,6.40
2023-01-06T20:23:20.774Z,8.77
2023-01-06T20:25:50.177Z,4.78
2023-01-06T20:28:18.497Z,8.52
2023-01-06T20:30:46.986Z,6.78
2023-01-06T20:33:22.769Z,6.65
2023-01-06T20:35:51.262Z,8.10
2023-01-06T20:38:19.346Z,9.50
2023-01-06T20:40:48.298Z,11.13
2023-01-06T20:43:19.781Z,9.93
2023-01-06T20:45:50.847Z,11.00
2023-01-06T20:48:19.258Z,11.63
2023-01-06T20:50:47.464Z,8.00
2023-01-06T20:53:16.468Z,12.63
2023-01-06T20:55:46.455Z,11.38
2023-01-06T20:58:14.738Z,16.10
2023-01-06T21:00:44.066Z,7.55
2023-01-06T21:03:12.589Z,15.63
2023-01-06T21:05:40.543Z,15.32
2023-01-06T21:08:09.272Z,19.10
2023-01-06T21:10:38.642Z,14.07
2023-01-06T21:13:06.760Z,12.40
2023-01-06T21:15:34.699Z,12.70
2023-01-06T21:18:04.192Z,12.27
2023-01-06T21:20:32.156Z,5.63
2023-01-06T21:23:00.122Z,9.75
2023-01-06T21:25:28.261Z,8.50
2023-01-06T21:27:56.793Z,13.13
2023-01-06T21:30:25.791Z,8.35
2023-01-06T21:32:55.155Z,10.50
2023-01-06T21:35:26.648Z,10.30
2023-01-06T21:37:54.585Z,10.95
2023-01-06T21:40:22.499Z,9.93
2023-01-06T21:43:08.288Z,10.27
2023-01-06T21:45:36.399Z,9.73
2023-01-06T21:48:04.839Z,10.23
2023-01-06T21:50:37.299Z,9.43
2023-01-06T21:53:06.995Z,10.05
2023-01-06T21:55:35.265Z,9.70
2023-01-06T21:58:03.440Z,7.38
2023-01-06T22:00:32.868Z,9.93
2023-01-06T22:03:00.885Z,9.88
2023-01-06T22:05:31.222Z,8.93
2023-01-06T22:08:01.321Z,12.95
2023-01-06T22:10:31.387Z,7.95
2023-01-06T22:13:00.117Z,9.80
2023-01-06T22:15:29.682Z,9.73
2023-01-06T22:18:01.985Z,9.50
2023-01-06T22:20:32.106Z,6.95
2023-01-06T22:23:03.239Z,5.78
2023-01-06T22:25:31.622Z,5.97
2023-01-06T22:28:00.401Z,8.20
2023-01-06T22:30:30.491Z,6.22
2023-01-06T22:32:58.736Z,6.90
2023-01-06T22:35:26.790Z,6.85
2023-01-06T22:37:54.728Z,6.93
2023-01-06T22:40:24.024Z,6.13
2023-01-06T22:42:52.016Z,6.78
2023-01-06T22:45:20.034Z,6.07
2023-01-06T22:47:50.211Z,6.28
2023-01-06T22:50:18.327Z,7.22
2023-01-06T22:52:46.230Z,6.65
2023-01-06T22:55:14.134Z,7.25
2023-01-06T22:57:43.383Z,7.15
2023-01-06T23:00:16.174Z,7.10
2023-01-06T23:02:44.691Z,6.22
2023-01-06T23:05:12.800Z,9.00
2023-01-06T23:07:43.983Z,8.13
2023-01-06T23:10:14.134Z,6.35
2023-01-06T23:12:44.900Z,5.70
2023-01-06T23:15:13.344Z,8.63
2023-01-06T23:17:41.317Z,7.65
2023-01-06T23:20:10.246Z,7.85
2023-01-06T23:22:38.177Z,7.40
2023-01-06T23:25:07.044Z,6.30
2023-01-06T23:27:34.968Z,8.90
2023-01-06T23:30:04.600Z,6.80
2023-01-06T23:32:32.566Z,6.38
2023-01-06T23:35:01.742Z,7.78
2023-01-06T23:37:29.654Z,7.85
2023-01-06T23:39:57.573Z,11.20
2023-01-06T23:42:25.567Z,9.40
2023-01-06T23:44:54.519Z,6.47
2023-01-06T23:47:23.770Z,7.70
2023-01-06T23:49:51.720Z,6.55
2023-01-06T23:52:19.693Z,6.85
2023-01-06T23:54:47.599Z,6.65
2023-01-06T23:57:16.661Z,7.80
2023-01-06T23:59:45.236Z,7.68
